createdAt,value
2022-12-22T06:31:52.857Z,1.55
2022-12-22T06:34:20.114Z,1.35
2022-12-22T06:36:48.152Z,1.20
2022-12-22T06:39:17.145Z,1.65
2022-12-22T06:42:04.278Z,1.63
2022-12-22T06:44:31.885Z,0.98
2022-12-22T06:46:59.117Z,1.58
2022-12-22T06:49:26.304Z,0.90
2022-12-22T06:51:53.609Z,1.65
2022-12-22T06:54:25.843Z,1.33
2022-12-22T06:56:53.715Z,1.95
2022-12-22T06:59:20.844Z,1.42
2022-12-22T07:01:48.283Z,1.17
2022-12-22T07:04:19.848Z,1.25
2022-12-22T07:06:48.512Z,1.67
2022-12-22T07:09:15.777Z,1.40
2022-12-22T07:11:42.938Z,2.00
2022-12-22T07:14:11.444Z,2.15
2022-12-22T07:16:38.730Z,1.95
2022-12-22T07:19:06.007Z,1.70
2022-12-22T07:21:33.249Z,2.45
2022-12-22T07:24:00.466Z,1.50
2022-12-22T07:26:27.947Z,1.98
2022-12-22T07:28:55.150Z,2.45
2022-12-22T07:31:23.664Z,2.35
2022-12-22T07:33:51.994Z,1.27
2022-12-22T07:36:20.530Z,1.92
2022-12-22T07:38:49.857Z,1.60
2022-12-22T07:41:39.505Z,1.73
2022-12-22T07:44:07.092Z,1.40
2022-12-22T07:46:37.093Z,2.10
2022-12-22T07:49:25.972Z,1.52
2022-12-22T07:51:55.826Z,2.75
2022-12-22T07:54:23.419Z,2.20
2022-12-22T07:56:50.776Z,2.33
2022-12-22T07:59:18.006Z,1.60
2022-12-22T08:01:45.998Z,1.83
2022-12-22T08:04:14.763Z,2.22
2022-12-22T08:06:42.328Z,2.10
2022-12-22T08:09:13.293Z,1.75
2022-12-22T08:11:40.478Z,1.90
2022-12-22T08:14:08.264Z,2.42
2022-12-22T08:16:35.487Z,1.80
2022-12-22T08:19:02.709Z,1.40
2022-12-22T08:21:30.041Z,2.50
2022-12-22T08:23:57.204Z,2.17
2022-12-22T08:26:33.673Z,1.80
2022-12-22T08:29:07.876Z,2.00
2022-12-22T08:31:35.465Z,1.70
2022-12-22T08:34:06.050Z,2.63
2022-12-22T08:36:36.915Z,1.85
2022-12-22T08:39:04.763Z,2.05
2022-12-22T08:41:53.025Z,1.40
2022-12-22T08:44:24.433Z,2.08
2022-12-22T08:46:53.162Z,1.50
2022-12-22T08:49:20.623Z,1.75
2022-12-22T08:51:48.026Z,1.75
2022-12-22T08:54:16.011Z,2.35
2022-12-22T08:56:43.777Z,2.13
2022-12-22T08:59:11.445Z,2.47
2022-12-22T09:01:46.823Z,1.73
2022-12-22T09:04:15.779Z,1.75
2022-12-22T09:06:43.199Z,1.70
2022-12-22T09:09:12.426Z,1.90
2022-12-22T09:11:40.346Z,1.92
2022-12-22T09:14:09.720Z,1.75
2022-12-22T09:16:37.298Z,2.08
2022-12-22T09:19:06.371Z,1.30
2022-12-22T09:21:34.194Z,2.40
2022-12-22T09:24:01.414Z,2.15
2022-12-22T09:26:29.131Z,1.73
2022-12-22T09:28:56.704Z,1.70
2022-12-22T09:31:26.321Z,1.77
2022-12-22T09:33:54.159Z,1.58
2022-12-22T09:36:26.129Z,1.38
2022-12-22T09:38:53.313Z,1.60
2022-12-22T09:41:29.017Z,1.65
2022-12-22T09:43:56.712Z,1.73
2022-12-22T09:46:27.027Z,1.65
2022-12-22T09:48:55.129Z,1.40
2022-12-22T09:51:27.214Z,2.13
2022-12-22T09:53:58.913Z,2.28
2022-12-22T09:56:28.582Z,2.10
2022-12-22T09:58:56.710Z,1.52
2022-12-22T10:01:57.017Z,1.35
2022-12-22T10:04:51.150Z,1.20
2022-12-22T10:07:32.628Z,1.45
2022-12-22T10:10:15.813Z,1.65
2022-12-22T10:12:43.034Z,1.70
2022-12-22T10:15:15.444Z,2.05
2022-12-22T10:17:45.875Z,1.60
2022-12-22T10:20:29.670Z,1.08
2022-12-22T10:23:00.809Z,1.83
2022-12-22T10:26:26.331Z,1.27
2022-12-22T10:28:29.138Z,1.92
2022-12-22T10:31:18.945Z,1.45
2022-12-22T10:33:48.696Z,1.17
2022-12-22T10:36:23.352Z,1.17
2022-12-22T10:38:58.789Z,1.15
2022-12-22T10:41:30.668Z,1.27
2022-12-22T10:44:01.645Z,1.65
2022-12-22T10:46:37.158Z,1.05
2022-12-22T10:49:28.069Z,1.30
2022-12-22T10:54:36.228Z,1.40
2022-12-22T10:57:20.783Z,1.42
2022-12-22T10:59:57.986Z,1.08
2022-12-22T11:02:30.082Z,1.27
2022-12-22T11:05:08.047Z,1.45
2022-12-22T11:07:40.023Z,1.23
2022-12-22T11:10:18.561Z,1.33
2022-12-22T11:13:25.546Z,1.40
2022-12-22T11:16:17.189Z,1.90
2022-12-22T11:19:24.228Z,1.38
2022-12-22T11:22:18.123Z,1.60
2022-12-22T11:28:13.551Z,1.38
2022-12-22T11:31:09.192Z,1.10
2022-12-22T11:34:02.187Z,1.02
2022-12-22T11:36:59.446Z,1.02
2022-12-22T11:39:57.530Z,1.58
2022-12-22T11:42:47.476Z,1.10
2022-12-22T11:45:53.515Z,1.20
2022-12-22T11:49:00.659Z,1.48
2022-12-22T11:51:46.385Z,1.45
2022-12-22T11:54:42.761Z,1.20
2022-12-22T11:57:34.542Z,1.30
2022-12-22T12:00:13.754Z,1.13
2022-12-22T12:03:09.921Z,1.30
2022-12-22T12:06:07.127Z,1.40
2022-12-22T12:08:52.131Z,1.15
2022-12-22T12:11:33.010Z,1.70
2022-12-22T12:14:24.719Z,1.05
2022-12-22T12:17:00.123Z,1.52
2022-12-22T12:19:57.372Z,2.13
2022-12-22T12:25:38.867Z,1.67
2022-12-22T12:28:20.263Z,1.70
2022-12-22T12:30:55.835Z,1.52
2022-12-22T12:33:39.083Z,2.53
2022-12-22T12:42:19.583Z,1.23
2022-12-22T12:44:47.544Z,2.38
2022-12-22T12:47:35.244Z,1.83
2022-12-22T12:58:03.819Z,1.60
2022-12-22T13:06:10.572Z,1.17
2022-12-22T13:09:40.284Z,1.92
2022-12-22T13:12:34.745Z,1.63
2022-12-22T13:15:02.274Z,1.60
2022-12-22T13:17:47.755Z,1.80
2022-12-22T13:20:19.195Z,1.75
2022-12-22T13:22:51.517Z,2.25
2022-12-22T13:25:19.117Z,1.80
2022-12-22T13:27:46.631Z,2.03
2022-12-22T13:30:19.555Z,1.35
2022-12-22T13:32:49.689Z,2.40
2022-12-22T13:35:47.124Z,1.73
2022-12-22T13:38:36.680Z,2.03
2022-12-22T13:41:14.777Z,2.10
2022-12-22T13:43:47.332Z,1.88
2022-12-22T13:46:14.797Z,2.03
2022-12-22T13:48:45.582Z,2.22
2022-12-22T13:51:25.223Z,1.90
2022-12-22T13:54:08.315Z,1.60
2022-12-22T13:56:40.992Z,2.28
2022-12-22T13:59:30.900Z,3.30
2022-12-22T14:02:16.317Z,1.80
2022-12-22T14:05:03.759Z,1.88
2022-12-22T14:07:31.592Z,1.95
2022-12-22T14:09:58.954Z,2.50
2022-12-22T14:12:32.467Z,2.13
2022-12-22T14:15:01.936Z,2.08
2022-12-22T14:17:32.067Z,2.85
2022-12-22T14:20:01.405Z,2.88
2022-12-22T14:22:34.423Z,2.28
2022-12-22T14:27:38.484Z,2.75
2022-12-22T14:30:30.983Z,2.90
2022-12-22T14:36:23.676Z,3.08
2022-12-22T14:38:56.584Z,3.97
2022-12-22T14:41:44.121Z,2.60
2022-12-22T14:44:16.526Z,2.90
2022-12-22T14:46:45.584Z,2.97
2022-12-22T14:49:15.822Z,2.00
2022-12-22T14:51:43.392Z,2.85
2022-12-22T14:54:20.996Z,2.60
2022-12-22T14:56:50.694Z,2.90
2022-12-22T14:59:25.972Z,4.05
2022-12-22T15:01:58.887Z,3.83
2022-12-22T15:04:27.168Z,3.42
2022-12-22T15:07:06.148Z,2.63
2022-12-22T15:10:13.044Z,2.95
2022-12-22T15:12:20.666Z,4.45
2022-12-22T15:14:49.074Z,2.78
2022-12-22T15:17:22.130Z,3.38
2022-12-22T15:19:50.709Z,4.18
2022-12-22T15:22:17.873Z,3.90
2022-12-22T15:24:45.092Z,3.00
2022-12-22T15:27:12.236Z,2.88
2022-12-22T15:29:39.391Z,4.60
2022-12-22T15:32:11.937Z,2.42
2022-12-22T15:34:39.849Z,2.08
2022-12-22T15:37:07.171Z,3.03
2022-12-22T15:39:34.271Z,3.58
2022-12-22T15:42:01.397Z,2.83
2022-12-22T15:44:31.092Z,2.65
2022-12-22T15:47:02.340Z,2.35
2022-12-22T15:49:31.985Z,2.67
2022-12-22T15:52:02.604Z,3.00
2022-12-22T15:54:33.182Z,3.17
2022-12-22T15:57:01.468Z,2.22
2022-12-22T15:59:29.741Z,2.00
2022-12-22T16:02:01.372Z,3.67
2022-12-22T16:04:30.056Z,2.70
2022-12-22T16:06:59.459Z,3.38
2022-12-22T16:09:32.684Z,3.25
2022-12-22T16:12:00.090Z,3.55
2022-12-22T16:14:27.495Z,3.45
2022-12-22T16:16:54.962Z,3.38
2022-12-22T16:19:22.166Z,3.28
2022-12-22T16:21:52.890Z,3.35
2022-12-22T16:24:27.789Z,3.65
2022-12-22T16:26:56.989Z,2.35
2022-12-22T16:29:25.176Z,3.70
2022-12-22T16:31:53.155Z,2.88
2022-12-22T16:34:20.520Z,3.10
2022-12-22T16:36:47.688Z,3.70
2022-12-22T16:39:14.900Z,2.53
2022-12-22T16:41:44.260Z,2.97
2022-12-22T16:44:20.053Z,4.38
2022-12-22T16:46:47.381Z,3.05
2022-12-22T16:49:24.549Z,3.45
2022-12-22T16:51:54.683Z,3.00
2022-12-22T16:54:21.883Z,2.58
2022-12-22T16:56:51.830Z,3.92
2022-12-22T16:59:19.064Z,3.08
